Terminal Aerodrome Forecast
Issued by NWS

Home | Current Version | Previous Version | Text Only | Print | Product List | Glossary On
Versions: 1 2 3 4 5 6 7 8 9 10 11 12 13 14 15 16 17 18 19 20 21 22 23 24 25 26 27 28 29 30 31 32 33 34 35 36 37 38 39 40 41 42
000
FTUS45 KBOU 282335
TAFAPA
TAF
KAPA 282335Z 2900/2924 31007KT P6SM -RA FEW025 SCT050 BKN080
     FM290100 30010KT P6SM SCT080 BKN150
     FM290300 21007KT P6SM SCT150
     FM290600 20007KT P6SM FEW150
     FM291700 VRB05KT P6SM FEW070 SCT140
     FM292100 33010KT P6SM SCT070 BKN120 PROB30 2921/2924 VRB15G25KT
      -TSRA BKN060CB=

USA.gov is the U.S. government's official web portal to all federal, state and local government web resources and services.